createdAt,value
2022-08-05T00:00:52.684Z,6.00
2022-08-05T00:03:24.359Z,5.80
2022-08-05T00:06:05.728Z,5.70
2022-08-05T00:08:48.310Z,5.40
2022-08-05T00:11:34.784Z,6.00
2022-08-05T00:14:12.746Z,5.90
2022-08-05T00:16:52.574Z,6.10
2022-08-05T00:19:32.881Z,6.10
2022-08-05T00:22:05.963Z,5.50
2022-08-05T00:24:38.125Z,5.40
2022-08-05T00:27:16.867Z,6.00
2022-08-05T00:29:48.644Z,5.90
2022-08-05T00:32:20.728Z,6.00
2022-08-05T00:35:06.707Z,6.00
2022-08-05T00:37:52.954Z,5.70
2022-08-05T00:40:29.337Z,5.70
2022-08-05T00:43:02.913Z,5.50
2022-08-05T00:45:43.906Z,5.50
2022-08-05T00:48:17.803Z,5.70
2022-08-05T00:50:59.339Z,6.10
2022-08-05T00:54:00.943Z,5.80
2022-08-05T00:56:23.118Z,6.10
2022-08-05T00:58:55.507Z,5.70
2022-08-05T01:01:42.944Z,5.20
2022-08-05T01:04:26.996Z,6.10
2022-08-05T01:07:01.823Z,5.70
2022-08-05T01:09:37.073Z,5.70
2022-08-05T01:12:18.628Z,5.90
2022-08-05T01:14:57.047Z,5.40
2022-08-05T01:17:32.804Z,5.60
2022-08-05T01:20:22.313Z,6.00
2022-08-05T01:23:14.423Z,6.10
2022-08-05T01:26:04.615Z,5.50
2022-08-05T01:28:43.665Z,5.60
2022-08-05T01:31:23.678Z,5.60
2022-08-05T01:34:04.461Z,5.60
2022-08-05T01:36:47.052Z,6.00
2022-08-05T01:39:46.126Z,5.70
2022-08-05T01:42:17.527Z,5.70
2022-08-05T01:44:54.419Z,6.40
2022-08-05T01:47:39.631Z,5.60
2022-08-05T01:50:17.389Z,6.10
2022-08-05T01:52:51.358Z,6.00
2022-08-05T01:55:26.060Z,5.90
2022-08-05T01:58:10.130Z,5.70
2022-08-05T02:00:52.171Z,6.20
2022-08-05T02:03:31.427Z,5.50
2022-08-05T02:06:37.160Z,5.40
2022-08-05T02:08:59.358Z,5.90
2022-08-05T02:11:42.262Z,6.00
2022-08-05T02:14:28.505Z,5.90
2022-08-05T02:19:47.129Z,5.70
2022-08-05T02:22:26.367Z,6.60
2022-08-05T02:25:05.923Z,6.00
2022-08-05T02:27:59.399Z,5.70
2022-08-05T02:30:51.527Z,5.40
2022-08-05T02:33:35.944Z,5.90
2022-08-05T02:36:15.738Z,5.40
2022-08-05T02:38:53.396Z,6.10
2022-08-05T02:41:28.685Z,6.50
2022-08-05T02:44:12.379Z,5.70
2022-08-05T02:46:58.955Z,6.20
2022-08-05T02:49:37.361Z,6.30
2022-08-05T02:52:13.526Z,6.00
2022-08-05T02:54:58.986Z,5.70
2022-08-05T02:58:10.619Z,6.10
2022-08-05T03:00:27.322Z,6.20
2022-08-05T03:03:00.646Z,6.30
2022-08-05T03:06:55.157Z,5.80
2022-08-05T03:08:29.652Z,5.90
2022-08-05T03:11:54.611Z,5.70
2022-08-05T03:14:02.762Z,5.90
2022-08-05T03:16:35.761Z,5.90
2022-08-05T03:19:12.784Z,5.40
2022-08-05T03:21:49.859Z,5.80
2022-08-05T03:24:29.905Z,6.00
2022-08-05T03:27:03.020Z,6.00
2022-08-05T03:29:45.854Z,6.20
2022-08-05T03:32:31.422Z,5.70
2022-08-05T03:35:04.438Z,5.80
2022-08-05T03:37:46.417Z,5.70
2022-08-05T03:40:24.061Z,5.50
2022-08-05T03:42:56.274Z,6.00
2022-08-05T03:45:27.894Z,5.40
2022-08-05T03:48:00.703Z,5.10
2022-08-05T03:50:42.465Z,5.50
2022-08-05T03:55:52.892Z,5.80
2022-08-05T03:56:30.686Z,5.20
2022-08-05T03:59:08.735Z,5.60
2022-08-05T04:01:45.314Z,5.50
2022-08-05T04:04:23.127Z,5.10
2022-08-05T04:06:59.167Z,5.00
2022-08-05T04:09:32.709Z,5.10
2022-08-05T04:12:24.674Z,5.50
2022-08-05T04:14:57.556Z,5.10
2022-08-05T04:17:36.455Z,5.40
2022-08-05T04:20:23.279Z,5.80
2022-08-05T04:22:55.060Z,4.90
2022-08-05T04:25:56.543Z,5.00
2022-08-05T04:28:30.659Z,4.80
2022-08-05T04:31:03.104Z,4.10
2022-08-05T04:34:17.449Z,4.20
2022-08-05T04:36:45.395Z,3.80
2022-08-05T04:39:18.442Z,3.70
2022-08-05T04:41:51.397Z,3.50
2022-08-05T04:44:29.474Z,3.50
2022-08-05T04:47:09.068Z,3.20
2022-08-05T04:50:02.839Z,3.40
2022-08-05T04:52:34.487Z,3.20
2022-08-05T04:55:14.809Z,3.00
2022-08-05T04:57:54.059Z,2.90
2022-08-05T05:03:00.208Z,2.90
2022-08-05T05:06:40.162Z,2.90
2022-08-05T05:08:30.100Z,3.10
2022-08-05T05:11:02.298Z,3.40
2022-08-05T05:13:43.470Z,2.90
2022-08-05T05:16:16.269Z,3.30
2022-08-05T05:19:16.352Z,3.00
2022-08-05T05:21:43.299Z,3.00
2022-08-05T05:24:18.270Z,3.20
2022-08-05T05:26:51.792Z,2.80
2022-08-05T05:29:23.888Z,3.20
2022-08-05T05:32:12.827Z,3.00
2022-08-05T05:34:47.420Z,3.30
2022-08-05T05:37:19.044Z,3.60
2022-08-05T05:39:50.693Z,4.10
2022-08-05T05:42:22.599Z,4.00
2022-08-05T05:44:59.534Z,4.30
2022-08-05T05:48:05.461Z,3.80
2022-08-05T05:50:23.213Z,3.60
2022-08-05T05:52:57.503Z,4.00
2022-08-05T05:55:52.013Z,4.60
2022-08-05T05:58:21.184Z,4.40
2022-08-05T06:01:12.161Z,4.50
2022-08-05T06:04:00.451Z,5.00
2022-08-05T06:06:34.845Z,5.00
2022-08-05T06:09:07.785Z,4.60
2022-08-05T06:11:39.529Z,4.80
2022-08-05T06:14:11.289Z,4.80
2022-08-05T06:16:42.980Z,4.60
2022-08-05T06:19:33.966Z,4.90
2022-08-05T06:22:07.809Z,4.60
2022-08-05T06:24:46.669Z,4.50
2022-08-05T06:28:11.814Z,4.40
2022-08-05T06:30:20.137Z,4.90
2022-08-05T06:32:53.135Z,4.80
2022-08-05T06:36:08.343Z,4.70
2022-08-05T06:38:17.222Z,4.70
2022-08-05T06:41:08.385Z,4.50
2022-08-05T06:43:57.440Z,4.50
2022-08-05T06:46:31.679Z,4.70
2022-08-05T06:49:07.549Z,4.50
2022-08-05T06:51:40.824Z,4.80
2022-08-05T06:54:18.120Z,4.10
2022-08-05T06:56:55.083Z,4.90
2022-08-05T06:59:54.996Z,4.80
2022-08-05T07:02:30.109Z,5.20
2022-08-05T07:05:01.713Z,5.00
2022-08-05T07:07:43.139Z,5.00
2022-08-05T07:10:16.513Z,4.40
2022-08-05T07:13:06.359Z,4.40
2022-08-05T07:16:00.823Z,4.50
2022-08-05T07:18:34.206Z,4.70
2022-08-05T07:21:06.867Z,4.70
2022-08-05T07:23:40.616Z,4.50
2022-08-05T07:26:25.658Z,4.60
2022-08-05T07:28:58.132Z,4.40
2022-08-05T07:31:40.909Z,4.40
2022-08-05T07:34:28.495Z,3.90
2022-08-05T07:37:00.461Z,4.30
2022-08-05T07:40:27.081Z,4.20
2022-08-05T07:42:31.761Z,4.00
2022-08-05T07:45:09.327Z,4.10
2022-08-05T07:47:42.466Z,4.50
2022-08-05T07:50:18.371Z,4.10
2022-08-05T07:52:50.104Z,4.20
2022-08-05T07:56:05.725Z,3.90
2022-08-05T07:58:17.818Z,4.40
2022-08-05T08:01:06.313Z,4.40
2022-08-05T08:03:45.001Z,4.40
2022-08-05T08:06:17.013Z,4.20
2022-08-05T08:08:48.697Z,3.70
2022-08-05T08:11:27.590Z,4.40
2022-08-05T08:14:18.303Z,4.70
2022-08-05T08:16:53.506Z,3.90
2022-08-05T08:20:10.743Z,4.10
2022-08-05T08:22:17.131Z,3.50
2022-08-05T08:24:51.635Z,3.70
2022-08-05T08:27:23.894Z,4.40
2022-08-05T08:30:27.732Z,3.40
2022-08-05T08:33:02.752Z,3.60
2022-08-05T08:35:41.383Z,3.30
2022-08-05T08:38:35.739Z,3.50
2022-08-05T08:41:14.026Z,3.20
2022-08-05T08:45:22.832Z,3.10
2022-08-05T08:46:40.183Z,3.00
2022-08-05T08:50:14.269Z,3.10
2022-08-05T08:52:13.945Z,3.30
2022-08-05T08:54:48.098Z,3.00
2022-08-05T08:57:20.018Z,2.80
2022-08-05T08:59:56.080Z,3.10
2022-08-05T09:02:28.637Z,3.70
2022-08-05T09:05:17.944Z,2.80
2022-08-05T09:07:57.459Z,3.10
2022-08-05T09:10:30.008Z,3.20
2022-08-05T09:13:05.305Z,3.20
2022-08-05T09:15:39.081Z,3.50
2022-08-05T09:18:13.475Z,2.70
2022-08-05T09:20:47.268Z,3.10
2022-08-05T09:23:21.631Z,2.90
2022-08-05T09:26:11.506Z,3.00
2022-08-05T09:28:55.362Z,2.90
2022-08-05T09:32:39.392Z,2.80
2022-08-05T09:34:18.886Z,2.50
2022-08-05T09:36:56.245Z,2.50
2022-08-05T09:42:28.114Z,2.70
2022-08-05T09:46:04.786Z,2.50
2022-08-05T09:48:03.275Z,2.70
2022-08-05T09:50:43.971Z,2.60
2022-08-05T09:53:26.157Z,2.80
2022-08-05T09:56:12.903Z,2.30
2022-08-05T09:58:56.577Z,2.30
2022-08-05T10:01:31.911Z,2.50
2022-08-05T10:04:10.733Z,2.30
2022-08-05T10:06:49.808Z,2.40
2022-08-05T10:09:31.031Z,2.70
2022-08-05T10:12:31.102Z,2.50
2022-08-05T10:15:25.585Z,2.40
2022-08-05T10:18:19.825Z,2.70
2022-08-05T10:20:54.601Z,2.50
2022-08-05T10:23:56.113Z,2.60
2022-08-05T10:26:24.311Z,2.70
2022-08-05T10:29:03.655Z,2.80
2022-08-05T10:32:54.150Z,2.80
2022-08-05T10:34:31.178Z,2.60
2022-08-05T10:37:03.070Z,2.40
2022-08-05T10:39:59.386Z,2.60
2022-08-05T10:42:34.700Z,3.00
2022-08-05T10:45:23.498Z,2.80
2022-08-05T10:48:52.782Z,2.70
2022-08-05T10:51:53.061Z,2.70
2022-08-05T10:54:56.566Z,2.50
2022-08-05T10:57:34.147Z,2.80
2022-08-05T11:00:20.739Z,2.80
2022-08-05T11:03:25.053Z,2.80
2022-08-05T11:06:17.796Z,2.50
2022-08-05T11:09:16.847Z,2.50
2022-08-05T11:11:52.740Z,3.10
2022-08-05T11:17:59.450Z,2.70
2022-08-05T11:20:39.279Z,2.30
2022-08-05T11:23:49.882Z,2.60
2022-08-05T11:26:28.815Z,2.70
2022-08-05T11:29:12.840Z,2.50
2022-08-05T11:31:58.906Z,2.90
2022-08-05T11:34:51.445Z,2.80
2022-08-05T11:38:27.776Z,3.00
2022-08-05T11:41:35.084Z,3.30
2022-08-05T11:44:05.441Z,3.20
2022-08-05T11:47:09.333Z,2.90
2022-08-05T11:49:34.070Z,3.30
2022-08-05T11:52:08.690Z,2.70
2022-08-05T11:54:48.449Z,2.70
2022-08-05T11:58:08.028Z,2.70
2022-08-05T12:00:30.793Z,2.90
2022-08-05T12:03:28.548Z,2.60
2022-08-05T12:06:10.238Z,2.70
2022-08-05T12:08:50.997Z,2.50
2022-08-05T12:11:28.389Z,2.60
2022-08-05T12:14:12.495Z,2.50
2022-08-05T12:16:47.381Z,2.70
2022-08-05T12:20:27.271Z,2.50
2022-08-05T12:22:14.757Z,2.60
2022-08-05T12:24:53.146Z,2.40
2022-08-05T12:27:26.677Z,2.80
2022-08-05T12:30:09.029Z,2.70
2022-08-05T12:32:50.796Z,2.60
2022-08-05T12:35:24.729Z,3.10
2022-08-05T12:38:12.099Z,2.90
2022-08-05T12:40:47.112Z,2.70
2022-08-05T12:43:20.585Z,3.00
2022-08-05T12:45:57.783Z,3.00
2022-08-05T12:48:39.119Z,3.20
2022-08-05T12:51:21.694Z,3.00
2022-08-05T12:54:16.596Z,3.10
2022-08-05T12:56:56.668Z,2.90
2022-08-05T13:00:08.299Z,3.00
2022-08-05T13:02:30.250Z,3.30
2022-08-05T13:05:07.163Z,2.90
2022-08-05T13:08:00.542Z,2.90
2022-08-05T13:10:34.223Z,3.00
2022-08-05T13:13:09.045Z,2.70
2022-08-05T13:15:50.986Z,3.00
2022-08-05T13:18:23.939Z,2.50
2022-08-05T13:20:55.830Z,2.30
2022-08-05T13:23:27.730Z,2.60
2022-08-05T13:26:01.351Z,2.30
2022-08-05T13:28:33.327Z,2.40
2022-08-05T13:31:14.271Z,2.60
2022-08-05T13:34:24.513Z,2.40
2022-08-05T13:36:39.422Z,2.40
2022-08-05T13:39:24.452Z,2.40
2022-08-05T13:42:05.930Z,2.30
2022-08-05T13:44:40.954Z,2.60
2022-08-05T13:50:12.369Z,2.20
2022-08-05T13:52:50.010Z,2.60
2022-08-05T13:55:41.522Z,2.60
2022-08-05T13:58:30.319Z,2.40
2022-08-05T14:01:03.052Z,2.50
2022-08-05T14:03:35.768Z,2.40
2022-08-05T14:06:26.863Z,2.60
2022-08-05T14:08:59.519Z,2.30
2022-08-05T14:11:31.455Z,2.50
2022-08-05T14:14:03.065Z,3.00
2022-08-05T14:16:36.275Z,2.70
2022-08-05T14:19:07.866Z,2.60
2022-08-05T14:22:09.278Z,2.60
2022-08-05T14:24:33.367Z,2.50
2022-08-05T14:27:17.523Z,2.40
2022-08-05T14:29:51.434Z,2.30
2022-08-05T14:32:26.648Z,2.30
2022-08-05T14:34:59.528Z,2.60
2022-08-05T14:37:44.691Z,4.10
2022-08-05T14:40:19.936Z,3.30
2022-08-05T14:42:56.328Z,3.30
2022-08-05T14:45:28.004Z,4.10
2022-08-05T14:48:05.027Z,4.00
2022-08-05T14:50:40.806Z,5.50
2022-08-05T14:53:13.465Z,4.40
2022-08-05T14:55:49.416Z,4.60
2022-08-05T14:58:24.353Z,4.90
2022-08-05T15:00:58.262Z,4.60
2022-08-05T15:03:33.526Z,4.40
2022-08-05T15:06:07.890Z,4.70
2022-08-05T15:09:01.600Z,6.20
2022-08-05T15:11:52.325Z,4.80
2022-08-05T15:14:35.083Z,5.10
2022-08-05T15:20:13.410Z,4.70
2022-08-05T15:22:52.183Z,5.30
2022-08-05T15:25:51.116Z,5.00
2022-08-05T15:28:19.290Z,5.20
2022-08-05T15:30:58.986Z,4.00
2022-08-05T15:34:05.507Z,3.90
2022-08-05T15:36:24.460Z,4.20
2022-08-05T15:40:41.579Z,3.80
2022-08-05T15:41:55.666Z,3.60
2022-08-05T15:44:30.349Z,3.80
2022-08-05T15:47:04.435Z,3.30
2022-08-05T15:49:53.323Z,4.20
2022-08-05T15:52:51.722Z,3.60
2022-08-05T15:55:19.591Z,3.90
2022-08-05T15:57:56.822Z,3.70
2022-08-05T16:00:50.266Z,3.50
2022-08-05T16:03:20.680Z,3.30
2022-08-05T16:05:52.861Z,3.30
2022-08-05T16:08:30.492Z,3.60
2022-08-05T16:11:03.259Z,3.40
2022-08-05T16:13:36.304Z,3.10
2022-08-05T16:16:10.643Z,3.50
2022-08-05T16:18:51.957Z,4.00
2022-08-05T16:21:58.576Z,4.00
2022-08-05T16:24:40.111Z,3.10
2022-08-05T16:27:08.370Z,3.70
2022-08-05T16:29:41.283Z,3.50
2022-08-05T16:32:16.717Z,3.30
2022-08-05T16:34:48.331Z,3.50
2022-08-05T16:38:15.233Z,3.60
2022-08-05T16:40:28.695Z,4.20
2022-08-05T16:43:01.114Z,3.80
2022-08-05T16:46:06.977Z,4.00
2022-08-05T16:48:33.578Z,3.80
2022-08-05T16:51:10.075Z,3.80
2022-08-05T16:54:04.853Z,3.80
2022-08-05T16:56:36.365Z,4.10
2022-08-05T16:59:10.321Z,3.60
2022-08-05T17:01:53.543Z,3.90
2022-08-05T17:04:28.782Z,4.00
2022-08-05T17:07:01.869Z,3.50
2022-08-05T17:09:38.896Z,3.90
2022-08-05T17:12:51.584Z,3.90
2022-08-05T17:15:20.108Z,4.00
2022-08-05T17:18:02.221Z,3.70
2022-08-05T17:20:34.305Z,3.60
2022-08-05T17:23:06.091Z,3.60
2022-08-05T17:25:39.922Z,3.70
2022-08-05T17:28:15.536Z,4.00
2022-08-05T17:30:51.865Z,3.50
2022-08-05T17:33:24.091Z,3.70
2022-08-05T17:36:08.082Z,3.20
2022-08-05T17:38:41.996Z,3.30
2022-08-05T17:42:16.822Z,3.20
2022-08-05T17:44:06.764Z,3.50
2022-08-05T17:46:42.874Z,3.30
2022-08-05T17:49:14.985Z,3.40
2022-08-05T17:51:46.866Z,3.40
2022-08-05T17:54:23.626Z,3.50
2022-08-05T17:56:55.397Z,3.10
2022-08-05T17:59:30.482Z,2.90
2022-08-05T18:02:02.873Z,2.80
2022-08-05T18:07:25.290Z,3.10
2022-08-05T18:10:09.959Z,2.40
2022-08-05T18:12:45.566Z,2.90
2022-08-05T18:15:18.715Z,3.30
2022-08-05T18:18:03.569Z,3.10
2022-08-05T18:20:37.533Z,2.50
2022-08-05T18:23:12.161Z,3.00
2022-08-05T18:25:57.656Z,2.70
2022-08-05T18:28:31.056Z,3.00
2022-08-05T18:31:03.013Z,2.60
2022-08-05T18:33:46.601Z,2.80
2022-08-05T18:36:19.463Z,2.70
2022-08-05T18:38:51.141Z,2.60
2022-08-05T18:42:00.681Z,2.70
2022-08-05T18:44:33.346Z,2.50
2022-08-05T18:47:07.336Z,2.60
2022-08-05T18:49:58.173Z,3.00
2022-08-05T18:52:38.088Z,2.70
2022-08-05T18:55:12.017Z,3.10
2022-08-05T18:57:52.680Z,2.60
2022-08-05T19:00:28.714Z,2.50
2022-08-05T19:03:03.283Z,2.80
2022-08-05T19:06:12.093Z,2.90
2022-08-05T19:08:30.188Z,2.80
2022-08-05T19:11:05.172Z,3.10
2022-08-05T19:13:39.199Z,2.90
2022-08-05T19:16:24.902Z,3.00
2022-08-05T19:19:00.971Z,3.00
2022-08-05T19:21:34.813Z,3.10
2022-08-05T19:24:12.606Z,3.00
2022-08-05T19:26:55.176Z,3.30
2022-08-05T19:29:36.424Z,3.10
2022-08-05T19:32:11.223Z,3.00
2022-08-05T19:34:54.685Z,2.60
2022-08-05T19:37:29.818Z,3.20
2022-08-05T19:40:10.470Z,3.10
2022-08-05T19:43:05.493Z,3.50
2022-08-05T19:45:37.397Z,3.10
2022-08-05T19:48:14.314Z,3.40
2022-08-05T19:50:46.518Z,3.30
2022-08-05T19:54:05.234Z,3.00
2022-08-05T19:56:14.353Z,3.70
2022-08-05T19:58:53.760Z,3.30
2022-08-05T20:01:28.377Z,3.30
2022-08-05T20:04:00.918Z,3.30
2022-08-05T20:06:37.772Z,3.10
2022-08-05T20:09:17.715Z,2.90
2022-08-05T20:11:51.593Z,3.00
2022-08-05T20:14:26.845Z,3.40
2022-08-05T20:16:59.421Z,3.30
2022-08-05T20:19:36.200Z,2.90
2022-08-05T20:22:13.332Z,3.00
2022-08-05T20:24:45.163Z,2.60
2022-08-05T20:27:17.123Z,2.80
2022-08-05T20:29:58.269Z,3.00
2022-08-05T20:32:30.786Z,3.10
2022-08-05T20:35:05.175Z,2.80
2022-08-05T20:38:06.639Z,3.20
2022-08-05T20:40:30.492Z,3.10
2022-08-05T20:43:04.793Z,3.40
2022-08-05T20:45:55.813Z,3.50
2022-08-05T20:48:29.260Z,3.30
2022-08-05T20:51:08.108Z,3.10
2022-08-05T20:53:41.008Z,3.60
2022-08-05T20:56:12.804Z,3.30
2022-08-05T20:58:44.780Z,3.50
2022-08-05T21:01:16.654Z,3.20
2022-08-05T21:03:48.873Z,3.20
2022-08-05T21:06:28.268Z,3.00
2022-08-05T21:09:00.734Z,3.30
2022-08-05T21:12:10.868Z,3.70
2022-08-05T21:14:26.568Z,3.40
2022-08-05T21:16:58.410Z,3.40
2022-08-05T21:19:47.250Z,3.50
2022-08-05T21:22:23.450Z,3.70
2022-08-05T21:24:56.574Z,3.50
2022-08-05T21:27:29.098Z,3.70
2022-08-05T21:30:17.356Z,3.40
2022-08-05T21:32:49.298Z,3.70
2022-08-05T21:35:30.242Z,3.70
2022-08-05T21:38:14.443Z,3.50
2022-08-05T21:40:48.903Z,4.10
2022-08-05T21:43:24.586Z,3.60
2022-08-05T21:46:00.119Z,4.20
2022-08-05T21:48:32.396Z,4.00
2022-08-05T21:52:16.525Z,4.10
2022-08-05T21:53:59.548Z,4.00
2022-08-05T21:56:35.421Z,4.80
2022-08-05T22:01:57.056Z,4.40
2022-08-05T22:04:28.740Z,4.90
2022-08-05T22:07:01.301Z,4.40
2022-08-05T22:09:46.185Z,5.40
2022-08-05T22:12:19.225Z,5.30
2022-08-05T22:14:58.200Z,5.10
2022-08-05T22:17:31.609Z,4.90
2022-08-05T22:20:16.387Z,5.30
2022-08-05T22:23:16.969Z,4.90
2022-08-05T22:26:11.255Z,5.40
2022-08-05T22:28:43.344Z,5.90
2022-08-05T22:31:16.999Z,5.80
2022-08-05T22:33:57.228Z,5.50
2022-08-05T22:36:32.292Z,5.30
2022-08-05T22:39:09.397Z,5.20
2022-08-05T22:42:09.344Z,5.40
2022-08-05T22:44:33.794Z,4.90
2022-08-05T22:47:06.577Z,5.40
2022-08-05T22:50:19.056Z,4.80
2022-08-05T22:52:34.307Z,5.50
2022-08-05T22:55:19.021Z,5.40
2022-08-05T22:57:52.454Z,5.00
2022-08-05T23:00:27.819Z,4.70
2022-08-05T23:02:59.606Z,4.70
2022-08-05T23:05:36.334Z,4.60
2022-08-05T23:08:12.448Z,5.10
2022-08-05T23:10:46.003Z,3.70
2022-08-05T23:13:17.756Z,3.80
2022-08-05T23:15:51.755Z,4.00
2022-08-05T23:18:23.540Z,3.80
2022-08-05T23:20:55.579Z,4.00
2022-08-05T23:23:29.974Z,3.40
2022-08-05T23:26:05.722Z,3.20
2022-08-05T23:28:37.313Z,3.30
2022-08-05T23:31:17.267Z,3.20
2022-08-05T23:34:05.614Z,3.50
2022-08-05T23:36:41.498Z,2.50
2022-08-05T23:39:31.822Z,2.70
2022-08-05T23:42:14.284Z,2.70
2022-08-05T23:44:46.307Z,2.30
2022-08-05T23:47:26.399Z,2.10
2022-08-05T23:49:58.781Z,1.80
2022-08-05T23:52:32.044Z,2.10
2022-08-05T23:55:11.005Z,1.80
2022-08-05T23:57:44.835Z,1.70
